sensor_id;sensor_type;location;lat;lon;timestamp;P1;durP1;ratioP1;P2;durP2;ratioP2
16430;SDS011;8325;49.284;7.238;2022-12-26T05:04:40;4.38;;;2.97;;
16430;SDS011;8325;49.284;7.238;2022-12-26T05:09:10;3.38;;;2.63;;
16430;SDS011;8325;49.284;7.238;2022-12-26T05:13:41;5.75;;;3.00;;
16430;SDS011;8325;49.284;7.238;2022-12-26T05:17:53;4.88;;;2.80;;
16430;SDS011;8325;49.284;7.238;2022-12-26T05:22:23;5.05;;;3.38;;
16430;SDS011;8325;49.284;7.238;2022-12-26T05:26:55;3.92;;;3.00;;
16430;SDS011;8325;49.284;7.238;2022-12-26T05:31:25;3.78;;;3.10;;
16430;SDS011;8325;49.284;7.238;2022-12-26T05:35:46;4.70;;;3.38;;
16430;SDS011;8325;49.284;7.238;2022-12-26T05:39:58;5.43;;;3.30;;
16430;SDS011;8325;49.284;7.238;2022-12-26T05:44:09;5.30;;;3.55;;
16430;SDS011;8325;49.284;7.238;2022-12-26T05:48:21;5.78;;;3.20;;
16430;SDS011;8325;49.284;7.238;2022-12-26T05:52:33;8.73;;;3.50;;
16430;SDS011;8325;49.284;7.238;2022-12-26T05:56:44;4.57;;;3.60;;
16430;SDS011;8325;49.284;7.238;2022-12-26T06:01:07;5.00;;;3.72;;
16430;SDS011;8325;49.284;7.238;2022-12-26T06:05:21;5.40;;;3.83;;
16430;SDS011;8325;49.284;7.238;2022-12-26T06:09:32;6.18;;;3.60;;
16430;SDS011;8325;49.284;7.238;2022-12-26T06:13:44;5.28;;;3.67;;
16430;SDS011;8325;49.284;7.238;2022-12-26T06:17:56;5.25;;;3.42;;
16430;SDS011;8325;49.284;7.238;2022-12-26T06:22:07;5.03;;;3.53;;
16430;SDS011;8325;49.284;7.238;2022-12-26T06:26:19;4.70;;;3.72;;
16430;SDS011;8325;49.284;7.238;2022-12-26T06:30:31;6.53;;;3.75;;
16430;SDS011;8325;49.284;7.238;2022-12-26T06:34:42;5.05;;;3.63;;
16430;SDS011;8325;49.284;7.238;2022-12-26T06:38:54;6.85;;;3.78;;
16430;SDS011;8325;49.284;7.238;2022-12-26T06:43:07;4.68;;;3.15;;
16430;SDS011;8325;49.284;7.238;2022-12-26T06:47:19;6.05;;;3.33;;
16430;SDS011;8325;49.284;7.238;2022-12-26T06:51:30;6.25;;;3.50;;
16430;SDS011;8325;49.284;7.238;2022-12-26T06:55:42;5.03;;;3.30;;
16430;SDS011;8325;49.284;7.238;2022-12-26T06:59:54;6.20;;;4.88;;
16430;SDS011;8325;49.284;7.238;2022-12-26T07:04:05;6.78;;;3.63;;
16430;SDS011;8325;49.284;7.238;2022-12-26T07:08:17;3.47;;;2.83;;
16430;SDS011;8325;49.284;7.238;2022-12-26T07:12:28;4.78;;;3.03;;
16430;SDS011;8325;49.284;7.238;2022-12-26T07:16:41;5.22;;;3.55;;
16430;SDS011;8325;49.284;7.238;2022-12-26T07:20:53;5.28;;;2.80;;
16430;SDS011;8325;49.284;7.238;2022-12-26T07:25:05;5.03;;;3.00;;
16430;SDS011;8325;49.284;7.238;2022-12-26T07:29:17;4.03;;;3.28;;
16430;SDS011;8325;49.284;7.238;2022-12-26T07:33:28;3.53;;;2.88;;
16430;SDS011;8325;49.284;7.238;2022-12-26T07:37:40;4.57;;;2.70;;
16430;SDS011;8325;49.284;7.238;2022-12-26T07:41:53;4.05;;;2.50;;
16430;SDS011;8325;49.284;7.238;2022-12-26T07:46:07;3.10;;;2.30;;
16430;SDS011;8325;49.284;7.238;2022-12-26T07:50:19;4.25;;;2.20;;
16430;SDS011;8325;49.284;7.238;2022-12-26T07:54:30;3.60;;;2.38;;
16430;SDS011;8325;49.284;7.238;2022-12-26T07:58:42;3.65;;;2.47;;
16430;SDS011;8325;49.284;7.238;2022-12-26T08:02:54;3.20;;;2.30;;
16430;SDS011;8325;49.284;7.238;2022-12-26T08:07:11;2.58;;;2.15;;
16430;SDS011;8325;49.284;7.238;2022-12-26T08:11:23;3.72;;;2.17;;
16430;SDS011;8325;49.284;7.238;2022-12-26T08:15:38;2.50;;;2.08;;
16430;SDS011;8325;49.284;7.238;2022-12-26T08:19:51;2.65;;;1.90;;
16430;SDS011;8325;49.284;7.238;2022-12-26T08:24:03;3.53;;;2.42;;
16430;SDS011;8325;49.284;7.238;2022-12-26T08:28:14;3.90;;;2.75;;
16430;SDS011;8325;49.284;7.238;2022-12-26T08:32:26;5.60;;;3.50;;
16430;SDS011;8325;49.284;7.238;2022-12-26T08:36:38;6.38;;;4.38;;
16430;SDS011;8325;49.284;7.238;2022-12-26T08:40:53;4.78;;;3.33;;
16430;SDS011;8325;49.284;7.238;2022-12-26T08:45:06;5.35;;;3.42;;
16430;SDS011;8325;49.284;7.238;2022-12-26T08:49:18;3.63;;;3.15;;
16430;SDS011;8325;49.284;7.238;2022-12-26T08:53:32;5.15;;;4.18;;
16430;SDS011;8325;49.284;7.238;2022-12-26T08:57:45;4.15;;;3.63;;
16430;SDS011;8325;49.284;7.238;2022-12-26T09:01:57;4.80;;;3.40;;
16430;SDS011;8325;49.284;7.238;2022-12-26T09:06:10;4.78;;;3.30;;
16430;SDS011;8325;49.284;7.238;2022-12-26T09:10:22;4.63;;;2.60;;
16430;SDS011;8325;49.284;7.238;2022-12-26T09:14:34;3.28;;;2.50;;
16430;SDS011;8325;49.284;7.238;2022-12-26T09:18:46;4.03;;;2.60;;
16430;SDS011;8325;49.284;7.238;2022-12-26T09:22:58;3.45;;;2.22;;
16430;SDS011;8325;49.284;7.238;2022-12-26T09:27:10;3.50;;;2.40;;
16430;SDS011;8325;49.284;7.238;2022-12-26T09:31:22;3.08;;;2.25;;
16430;SDS011;8325;49.284;7.238;2022-12-26T09:35:39;3.35;;;1.95;;
16430;SDS011;8325;49.284;7.238;2022-12-26T09:39:51;2.60;;;2.30;;
16430;SDS011;8325;49.284;7.238;2022-12-26T09:48:35;4.15;;;2.58;;
16430;SDS011;8325;49.284;7.238;2022-12-26T09:52:57;2.72;;;2.42;;
16430;SDS011;8325;49.284;7.238;2022-12-26T09:57:15;3.25;;;2.33;;
16430;SDS011;8325;49.284;7.238;2022-12-26T10:01:29;2.65;;;2.08;;
16430;SDS011;8325;49.284;7.238;2022-12-26T10:06:02;3.20;;;2.00;;
16430;SDS011;8325;49.284;7.238;2022-12-26T10:10:19;4.97;;;2.00;;
16430;SDS011;8325;49.284;7.238;2022-12-26T10:14:54;4.45;;;2.40;;
16430;SDS011;8325;49.284;7.238;2022-12-26T10:19:19;3.00;;;1.88;;
16430;SDS011;8325;49.284;7.238;2022-12-26T10:32:38;3.13;;;2.25;;
16430;SDS011;8325;49.284;7.238;2022-12-26T10:37:06;4.40;;;2.75;;
16430;SDS011;8325;49.284;7.238;2022-12-26T10:41:39;3.17;;;2.10;;
16430;SDS011;8325;49.284;7.238;2022-12-26T10:50:32;2.78;;;2.17;;
16430;SDS011;8325;49.284;7.238;2022-12-26T10:54:46;2.38;;;2.05;;
16430;SDS011;8325;49.284;7.238;2022-12-26T11:04:03;4.22;;;2.00;;
16430;SDS011;8325;49.284;7.238;2022-12-26T11:08:24;2.17;;;1.70;;
16430;SDS011;8325;49.284;7.238;2022-12-26T11:12:59;2.58;;;1.90;;
16430;SDS011;8325;49.284;7.238;2022-12-26T11:21:40;2.88;;;1.73;;
16430;SDS011;8325;49.284;7.238;2022-12-26T11:25:56;1.60;;;1.50;;
16430;SDS011;8325;49.284;7.238;2022-12-26T11:34:38;3.85;;;1.35;;
16430;SDS011;8325;49.284;7.238;2022-12-26T11:38:57;2.63;;;1.35;;
16430;SDS011;8325;49.284;7.238;2022-12-26T11:43:12;2.00;;;1.40;;
16430;SDS011;8325;49.284;7.238;2022-12-26T11:47:27;1.55;;;1.13;;
16430;SDS011;8325;49.284;7.238;2022-12-26T11:51:41;1.63;;;1.20;;
16430;SDS011;8325;49.284;7.238;2022-12-26T11:55:57;2.95;;;1.25;;
16430;SDS011;8325;49.284;7.238;2022-12-26T12:00:18;3.03;;;1.40;;
16430;SDS011;8325;49.284;7.238;2022-12-26T12:04:32;3.33;;;1.30;;
16430;SDS011;8325;49.284;7.238;2022-12-26T12:13:08;1.30;;;1.20;;
16430;SDS011;8325;49.284;7.238;2022-12-26T12:17:30;2.00;;;1.48;;
16430;SDS011;8325;49.284;7.238;2022-12-26T12:49:01;2.45;;;1.40;;
16430;SDS011;8325;49.284;7.238;2022-12-26T12:53:56;2.28;;;1.15;;
16430;SDS011;8325;49.284;7.238;2022-12-26T13:03:27;1.30;;;1.20;;
16430;SDS011;8325;49.284;7.238;2022-12-26T13:08:06;3.30;;;1.30;;
16430;SDS011;8325;49.284;7.238;2022-12-26T13:12:34;0.90;;;0.80;;
16430;SDS011;8325;49.284;7.238;2022-12-26T13:16:53;1.23;;;1.00;;
16430;SDS011;8325;49.284;7.238;2022-12-26T13:21:09;2.10;;;1.10;;
16430;SDS011;8325;49.284;7.238;2022-12-26T13:25:23;1.70;;;1.25;;
16430;SDS011;8325;49.284;7.238;2022-12-26T13:29:39;2.65;;;1.30;;
16430;SDS011;8325;49.284;7.238;2022-12-26T13:33:51;1.52;;;0.93;;
16430;SDS011;8325;49.284;7.238;2022-12-26T13:38:04;1.45;;;1.20;;
16430;SDS011;8325;49.284;7.238;2022-12-26T13:42:16;3.40;;;1.40;;
16430;SDS011;8325;49.284;7.238;2022-12-26T13:46:55;2.75;;;1.20;;
16430;SDS011;8325;49.284;7.238;2022-12-26T13:51:32;2.60;;;1.52;;
16430;SDS011;8325;49.284;7.238;2022-12-26T13:55:59;1.45;;;1.10;;
16430;SDS011;8325;49.284;7.238;2022-12-26T14:14:07;2.10;;;1.52;;
16430;SDS011;8325;49.284;7.238;2022-12-26T14:22:56;1.23;;;1.10;;
16430;SDS011;8325;49.284;7.238;2022-12-26T14:27:39;2.80;;;1.30;;
16430;SDS011;8325;49.284;7.238;2022-12-26T14:37:12;2.92;;;1.30;;
16430;SDS011;8325;49.284;7.238;2022-12-26T14:42:07;3.70;;;1.48;;
16430;SDS011;8325;49.284;7.238;2022-12-26T14:50:49;2.40;;;1.25;;
16430;SDS011;8325;49.284;7.238;2022-12-26T14:55:34;2.05;;;1.33;;
16430;SDS011;8325;49.284;7.238;2022-12-26T15:00:11;3.08;;;1.50;;
16430;SDS011;8325;49.284;7.238;2022-12-26T15:14:12;2.35;;;1.23;;
16430;SDS011;8325;49.284;7.238;2022-12-26T15:18:43;6.50;;;5.25;;
16430;SDS011;8325;49.284;7.238;2022-12-26T15:46:35;1.05;;;1.00;;
16430;SDS011;8325;49.284;7.238;2022-12-26T15:55:32;0.60;;;0.52;;
16430;SDS011;8325;49.284;7.238;2022-12-26T16:00:20;1.17;;;0.70;;
16430;SDS011;8325;49.284;7.238;2022-12-26T16:04:43;0.70;;;0.50;;
16430;SDS011;8325;49.284;7.238;2022-12-26T16:09:19;1.73;;;0.80;;
16430;SDS011;8325;49.284;7.238;2022-12-26T16:13:59;1.55;;;1.17;;
16430;SDS011;8325;49.284;7.238;2022-12-26T16:18:16;1.35;;;0.88;;
16430;SDS011;8325;49.284;7.238;2022-12-26T16:22:46;1.10;;;0.85;;
16430;SDS011;8325;49.284;7.238;2022-12-26T16:27:01;0.93;;;0.85;;
16430;SDS011;8325;49.284;7.238;2022-12-26T16:31:17;2.53;;;1.35;;
16430;SDS011;8325;49.284;7.238;2022-12-26T16:35:37;1.48;;;1.20;;
16430;SDS011;8325;49.284;7.238;2022-12-26T16:44:38;0.98;;;0.82;;
16430;SDS011;8325;49.284;7.238;2022-12-26T16:48:58;1.45;;;1.00;;
16430;SDS011;8325;49.284;7.238;2022-12-26T16:53:15;1.50;;;1.10;;
16430;SDS011;8325;49.284;7.238;2022-12-26T16:57:28;1.27;;;1.00;;
16430;SDS011;8325;49.284;7.238;2022-12-26T17:01:40;1.05;;;0.95;;
16430;SDS011;8325;49.284;7.238;2022-12-26T17:05:52;0.85;;;0.80;;
16430;SDS011;8325;49.284;7.238;2022-12-26T17:10:04;1.13;;;0.73;;
16430;SDS011;8325;49.284;7.238;2022-12-26T17:14:24;0.50;;;0.50;;
16430;SDS011;8325;49.284;7.238;2022-12-26T17:22:50;0.80;;;0.60;;
16430;SDS011;8325;49.284;7.238;2022-12-26T17:27:17;0.65;;;0.57;;
16430;SDS011;8325;49.284;7.238;2022-12-26T17:31:34;1.55;;;0.90;;
16430;SDS011;8325;49.284;7.238;2022-12-26T17:35:50;1.05;;;0.65;;
16430;SDS011;8325;49.284;7.238;2022-12-26T17:40:26;1.05;;;0.60;;
16430;SDS011;8325;49.284;7.238;2022-12-26T17:44:43;1.30;;;0.90;;
16430;SDS011;8325;49.284;7.238;2022-12-26T17:48:56;1.92;;;0.82;;
16430;SDS011;8325;49.284;7.238;2022-12-26T17:57:36;1.35;;;0.73;;
16430;SDS011;8325;49.284;7.238;2022-12-26T18:01:48;1.23;;;1.10;;
16430;SDS011;8325;49.284;7.238;2022-12-26T18:05:59;1.83;;;1.55;;
16430;SDS011;8325;49.284;7.238;2022-12-26T18:10:16;1.92;;;1.40;;
16430;SDS011;8325;49.284;7.238;2022-12-26T18:14:29;2.55;;;1.02;;
16430;SDS011;8325;49.284;7.238;2022-12-26T18:18:42;2.75;;;1.20;;
16430;SDS011;8325;49.284;7.238;2022-12-26T18:22:55;2.35;;;1.70;;
16430;SDS011;8325;49.284;7.238;2022-12-26T18:27:10;1.60;;;1.20;;
16430;SDS011;8325;49.284;7.238;2022-12-26T18:31:27;2.45;;;1.20;;
16430;SDS011;8325;49.284;7.238;2022-12-26T18:35:39;1.30;;;1.20;;
16430;SDS011;8325;49.284;7.238;2022-12-26T18:39:52;1.52;;;1.35;;
16430;SDS011;8325;49.284;7.238;2022-12-26T18:44:04;1.42;;;1.25;;
16430;SDS011;8325;49.284;7.238;2022-12-26T18:48:15;1.92;;;1.30;;
16430;SDS011;8325;49.284;7.238;2022-12-26T18:52:27;1.25;;;1.15;;
16430;SDS011;8325;49.284;7.238;2022-12-26T18:56:39;2.38;;;1.23;;
16430;SDS011;8325;49.284;7.238;2022-12-26T19:00:50;3.47;;;1.58;;
16430;SDS011;8325;49.284;7.238;2022-12-26T19:05:02;1.88;;;1.10;;
16430;SDS011;8325;49.284;7.238;2022-12-26T19:09:15;1.15;;;1.05;;
16430;SDS011;8325;49.284;7.238;2022-12-26T19:13:27;4.60;;;1.42;;
16430;SDS011;8325;49.284;7.238;2022-12-26T19:17:38;3.22;;;1.50;;
16430;SDS011;8325;49.284;7.238;2022-12-26T19:21:51;1.65;;;1.33;;
16430;SDS011;8325;49.284;7.238;2022-12-26T19:26:13;2.33;;;1.48;;
16430;SDS011;8325;49.284;7.238;2022-12-26T19:30:26;3.35;;;1.48;;
16430;SDS011;8325;49.284;7.238;2022-12-26T19:34:38;2.90;;;1.38;;
16430;SDS011;8325;49.284;7.238;2022-12-26T19:38:51;1.27;;;1.02;;
16430;SDS011;8325;49.284;7.238;2022-12-26T19:43:04;2.00;;;1.50;;
16430;SDS011;8325;49.284;7.238;2022-12-26T19:47:15;2.67;;;1.63;;
16430;SDS011;8325;49.284;7.238;2022-12-26T19:51:27;3.63;;;1.77;;
16430;SDS011;8325;49.284;7.238;2022-12-26T19:55:38;2.40;;;1.70;;
16430;SDS011;8325;49.284;7.238;2022-12-26T19:59:50;2.50;;;1.60;;
16430;SDS011;8325;49.284;7.238;2022-12-26T20:16:36;2.72;;;1.45;;
16430;SDS011;8325;49.284;7.238;2022-12-26T20:21:20;2.70;;;1.30;;
16430;SDS011;8325;49.284;7.238;2022-12-26T20:25:59;2.83;;;1.83;;
16430;SDS011;8325;49.284;7.238;2022-12-26T20:30:38;1.58;;;1.38;;
16430;SDS011;8325;49.284;7.238;2022-12-26T20:35:23;1.67;;;1.30;;
16430;SDS011;8325;49.284;7.238;2022-12-26T20:39:34;2.00;;;1.48;;
16430;SDS011;8325;49.284;7.238;2022-12-26T20:43:46;3.33;;;1.13;;
16430;SDS011;8325;49.284;7.238;2022-12-26T20:47:59;3.08;;;1.90;;
16430;SDS011;8325;49.284;7.238;2022-12-26T20:52:10;2.95;;;1.45;;
16430;SDS011;8325;49.284;7.238;2022-12-26T20:56:22;1.92;;;1.13;;
16430;SDS011;8325;49.284;7.238;2022-12-26T21:00:34;1.73;;;1.30;;
16430;SDS011;8325;49.284;7.238;2022-12-26T21:09:38;1.50;;;1.05;;
16430;SDS011;8325;49.284;7.238;2022-12-26T21:14:13;1.95;;;0.90;;
16430;SDS011;8325;49.284;7.238;2022-12-26T21:19:21;3.20;;;1.38;;
16430;SDS011;8325;49.284;7.238;2022-12-26T21:23:42;5.80;;;2.60;;
16430;SDS011;8325;49.284;7.238;2022-12-26T21:28:24;4.40;;;2.20;;
16430;SDS011;8325;49.284;7.238;2022-12-26T21:38:15;2.22;;;1.42;;
16430;SDS011;8325;49.284;7.238;2022-12-26T21:42:30;3.17;;;1.50;;
16430;SDS011;8325;49.284;7.238;2022-12-26T21:46:42;3.13;;;1.83;;
16430;SDS011;8325;49.284;7.238;2022-12-26T21:50:53;3.50;;;1.40;;
16430;SDS011;8325;49.284;7.238;2022-12-26T21:55:05;2.25;;;1.30;;
16430;SDS011;8325;49.284;7.238;2022-12-26T21:59:35;3.65;;;3.33;;
16430;SDS011;8325;49.284;7.238;2022-12-26T22:04:07;5.60;;;3.80;;
16430;SDS011;8325;49.284;7.238;2022-12-26T22:08:30;4.28;;;2.72;;
16430;SDS011;8325;49.284;7.238;2022-12-26T22:12:42;9.02;;;5.25;;
16430;SDS011;8325;49.284;7.238;2022-12-26T22:17:09;6.70;;;3.22;;
16430;SDS011;8325;49.284;7.238;2022-12-26T22:21:21;2.33;;;1.30;;
16430;SDS011;8325;49.284;7.238;2022-12-26T22:25:33;2.47;;;1.00;;
16430;SDS011;8325;49.284;7.238;2022-12-26T22:29:44;4.50;;;1.35;;
